Time,TemperatureF,DewpointF,PressureIn,WindDirection,WindDirectionDegrees,WindSpeedMPH,WindSpeedGustMPH,Humidity,HourlyPrecipIn,Conditions,Clouds,dailyrainin,SoftwareType,DateUTC
2013-03-07 00:00:00,64.3,30.0,29.91,SE,125,1.0,1.0,28,0.00,,,0.00,weatherlink.com 1.10,2013-03-07 07:00:00,
2013-03-07 00:15:00,64.8,30.0,29.91,NE,47,3.0,4.0,27,0.00,,,0.00,weatherlink.com 1.10,2013-03-07 07:15:00,
2013-03-07 00:30:00,66.6,30.0,29.91,NE,42,3.0,6.0,25,0.00,,,0.00,weatherlink.com 1.10,2013-03-07 07:30:00,
2013-03-07 00:45:00,66.2,29.0,29.91,NW,316,1.0,1.0,25,0.00,,,0.00,weatherlink.com 1.10,2013-03-07 07:45:00,
2013-03-07 01:00:00,64.7,32.0,29.91,WSW,249,3.0,3.0,29,0.00,,,0.00,weatherlink.com 1.10,2013-03-07 08:00:00,
2013-03-07 01:15:00,61.7,31.0,29.91,SW,233,1.0,3.0,32,0.00,,,0.00,weatherlink.com 1.10,2013-03-07 08:15:00,
2013-03-07 01:30:00,62.2,31.0,29.91,North,352,2.0,3.0,31,0.00,,,0.00,weatherlink.com 1.10,2013-03-07 08:30:00,
2013-03-07 01:45:00,63.1,28.0,29.91,West,269,1.0,3.0,27,0.00,,,0.00,weatherlink.com 1.10,2013-03-07 08:45:00,
2013-03-07 02:00:00,64.1,28.0,29.90,NE,42,2.0,2.0,26,0.00,,,0.00,weatherlink.com 1.10,2013-03-07 09:00:00,
2013-03-07 02:15:00,64.9,29.0,29.90,East,96,2.0,4.0,26,0.00,,,0.00,weatherlink.com 1.10,2013-03-07 09:15:00,
2013-03-07 02:30:00,63.0,30.0,29.90,East,79,1.0,4.0,29,0.00,,,0.00,weatherlink.com 1.10,2013-03-07 09:30:00,
2013-03-07 02:45:00,61.7,31.0,29.90,ENE,70,1.0,2.0,31,0.00,,,0.00,weatherlink.com 1.10,2013-03-07 09:45:00,
2013-03-07 03:00:00,58.5,31.0,29.89,ESE,110,0.0,4.0,36,0.00,,,0.00,weatherlink.com 1.10,2013-03-07 10:00:00,
2013-03-07 03:15:00,58.1,32.0,29.89,NE,42,3.0,5.0,37,0.00,,,0.00,weatherlink.com 1.10,2013-03-07 10:15:00,
2013-03-07 03:30:00,58.1,31.0,29.89,NE,37,5.0,5.0,36,0.00,,,0.00,weatherlink.com 1.10,2013-03-07 10:30:00,
2013-03-07 03:45:00,59.0,30.0,29.89,NE,51,1.0,3.0,34,0.00,,,0.00,weatherlink.com 1.10,2013-03-07 10:45:00,
2013-03-07 04:00:00,59.3,30.0,29.89,North,358,2.0,3.0,33,0.00,,,0.00,weatherlink.com 1.10,2013-03-07 11:00:00,
2013-03-07 04:15:00,59.8,30.0,29.89,East,86,3.0,3.0,32,0.00,,,0.00,weatherlink.com 1.10,2013-03-07 11:15:00,
2013-03-07 04:30:00,59.1,30.0,29.89,NNE,27,0.0,3.0,33,0.00,,,0.00,weatherlink.com 1.10,2013-03-07 11:30:00,
2013-03-07 04:45:00,59.1,30.0,29.90,East,83,2.0,2.0,33,0.00,,,0.00,weatherlink.com 1.10,2013-03-07 11:45:00,
2013-03-07 05:00:00,57.1,31.0,29.90,NNE,15,1.0,3.0,37,0.00,,,0.00,weatherlink.com 1.10,2013-03-07 12:00:00,
2013-03-07 05:15:00,56.9,31.0,29.91,NE,47,6.0,8.0,38,0.00,,,0.00,weatherlink.com 1.10,2013-03-07 12:15:00,
2013-03-07 05:30:00,57.0,31.0,29.91,NNW,346,1.0,2.0,37,0.00,,,0.00,weatherlink.com 1.10,2013-03-07 12:30:00,
2013-03-07 05:45:00,57.2,31.0,29.92,ENE,72,1.0,2.0,37,0.00,,,0.00,weatherlink.com 1.10,2013-03-07 12:45:00,
2013-03-07 06:00:00,56.0,31.0,29.93,ESE,105,0.0,1.0,38,0.00,,,0.00,weatherlink.com 1.10,2013-03-07 13:00:00,
2013-03-07 06:16:00,55.1,31.0,29.93,NW,311,1.0,2.0,40,0.00,,,0.00,weatherlink.com 1.10,2013-03-07 13:16:00,
2013-03-07 06:31:00,55.0,31.0,29.93,North,8,2.0,2.0,41,0.00,,,0.00,weatherlink.com 1.10,2013-03-07 13:31:00,
2013-03-07 06:46:00,55.7,31.0,29.94,NE,37,0.0,2.0,39,0.00,,,0.00,weatherlink.com 1.10,2013-03-07 13:46:00,
2013-03-07 07:01:00,55.9,32.0,29.94,East,84,3.0,3.0,40,0.00,,,0.00,weatherlink.com 1.10,2013-03-07 14:01:00,
2013-03-07 07:16:00,54.6,33.0,29.95,East,92,3.0,6.0,44,0.00,,,0.00,weatherlink.com 1.10,2013-03-07 14:16:00,
2013-03-07 07:46:00,56.5,33.0,29.96,WSW,245,0.0,1.0,41,0.00,,,0.00,weatherlink.com 1.10,2013-03-07 14:46:00,
2013-03-07 08:01:00,55.1,33.0,29.96,WNW,290,2.0,4.0,44,0.00,,,0.00,weatherlink.com 1.10,2013-03-07 15:01:00,
2013-03-07 08:16:00,56.7,33.0,29.97,WNW,297,0.0,2.0,41,0.00,,,0.00,weatherlink.com 1.10,2013-03-07 15:16:00,
2013-03-07 08:31:00,59.9,35.0,29.97,East,99,1.0,2.0,39,0.00,,,0.00,weatherlink.com 1.10,2013-03-07 15:31:00,
2013-03-07 08:46:00,62.0,35.0,29.98,ENE,76,2.0,3.0,37,0.00,,,0.00,weatherlink.com 1.10,2013-03-07 15:46:00,
2013-03-07 09:01:00,63.0,35.0,29.98,SSE,150,0.0,2.0,36,0.00,,,0.00,weatherlink.com 1.10,2013-03-07 16:01:00,
2013-03-07 09:16:00,63.8,36.0,29.98,ESE,120,4.0,5.0,35,0.00,,,0.00,weatherlink.com 1.10,2013-03-07 16:16:00,
2013-03-07 09:31:00,63.7,34.0,29.98,SE,131,2.0,4.0,33,0.00,,,0.00,weatherlink.com 1.10,2013-03-07 16:31:00,
2013-03-07 09:46:00,63.2,35.0,29.98,East,86,5.0,7.0,35,0.00,,,0.00,weatherlink.com 1.10,2013-03-07 16:46:00,
2013-03-07 10:01:00,63.7,34.0,29.99,East,85,3.0,6.0,33,0.00,,,0.00,weatherlink.com 1.10,2013-03-07 17:01:00,
2013-03-07 10:16:00,65.3,35.0,29.98,East,86,2.0,6.0,32,0.00,,,0.00,weatherlink.com 1.10,2013-03-07 17:16:00,
2013-03-07 10:31:00,65.4,34.0,29.98,ENE,61,2.0,6.0,31,0.00,,,0.00,weatherlink.com 1.10,2013-03-07 17:31:00,
2013-03-07 10:46:00,66.4,32.0,29.98,ESE,115,3.0,6.0,28,0.00,,,0.00,weatherlink.com 1.10,2013-03-07 17:46:00,
2013-03-07 11:01:00,68.7,33.0,29.98,ESE,104,6.0,6.0,27,0.00,,,0.00,weatherlink.com 1.10,2013-03-07 18:01:00,
2013-03-07 11:16:00,69.0,31.0,29.98,East,97,1.0,6.0,24,0.00,,,0.00,weatherlink.com 1.10,2013-03-07 18:16:00,
2013-03-07 11:31:00,69.3,33.0,29.98,ESE,108,7.0,7.0,26,0.00,,,0.00,weatherlink.com 1.10,2013-03-07 18:31:00,
2013-03-07 11:46:00,72.0,33.0,29.98,ESE,103,3.0,4.0,24,0.00,,,0.00,weatherlink.com 1.10,2013-03-07 18:46:00,
2013-03-07 12:01:00,73.3,32.0,29.97,SE,129,2.0,5.0,22,0.00,,,0.00,weatherlink.com 1.10,2013-03-07 19:01:00,
2013-03-07 12:16:00,72.7,33.0,29.97,SE,130,1.0,6.0,23,0.00,,,0.00,weatherlink.com 1.10,2013-03-07 19:16:00,
2013-03-07 12:31:00,73.7,32.0,29.96,SSE,148,1.0,8.0,22,0.00,,,0.00,weatherlink.com 1.10,2013-03-07 19:31:00,
2013-03-07 12:46:00,73.6,32.0,29.96,SW,214,0.0,7.0,22,0.00,,,0.00,weatherlink.com 1.10,2013-03-07 19:46:00,
2013-03-07 13:01:00,74.2,33.0,29.95,NW,306,0.0,7.0,22,0.00,,,0.00,weatherlink.com 1.10,2013-03-07 20:01:00,
2013-03-07 13:16:00,76.2,32.0,29.94,SW,226,1.0,6.0,20,0.00,,,0.00,weatherlink.com 1.10,2013-03-07 20:16:00,
2013-03-07 13:32:00,75.5,32.0,29.93,WSW,248,1.0,6.0,20,0.00,,,0.00,weatherlink.com 1.10,2013-03-07 20:32:00,
2013-03-07 13:47:00,76.9,33.0,29.92,WSW,250,2.0,8.0,20,0.00,,,0.00,weatherlink.com 1.10,2013-03-07 20:47:00,
2013-03-07 14:02:00,75.1,33.0,29.91,East,89,2.0,8.0,21,0.00,,,0.00,weatherlink.com 1.10,2013-03-07 21:02:00,
2013-03-07 14:17:00,75.4,32.0,29.90,SE,129,1.0,9.0,20,0.00,,,0.00,weatherlink.com 1.10,2013-03-07 21:17:00,
2013-03-07 14:32:00,78.7,32.0,29.90,SW,222,8.0,8.0,18,0.00,,,0.00,weatherlink.com 1.10,2013-03-07 21:32:00,
2013-03-07 14:47:00,78.0,30.0,29.90,SE,136,3.0,9.0,17,0.00,,,0.00,weatherlink.com 1.10,2013-03-07 21:47:00,
2013-03-07 15:02:00,76.8,31.0,29.89,ESE,122,3.0,11.0,19,0.00,,,0.00,weatherlink.com 1.10,2013-03-07 22:02:00,
2013-03-07 15:17:00,77.4,31.0,29.89,ENE,71,4.0,9.0,18,0.00,,,0.00,weatherlink.com 1.10,2013-03-07 22:17:00,
2013-03-07 15:32:00,77.9,30.0,29.89,South,169,2.0,8.0,17,0.00,,,0.00,weatherlink.com 1.10,2013-03-07 22:32:00,
2013-03-07 15:47:00,77.8,30.0,29.89,ESE,113,6.0,8.0,17,0.00,,,0.00,weatherlink.com 1.10,2013-03-07 22:47:00,
2013-03-07 16:02:00,78.9,30.0,29.88,SSW,195,1.0,7.0,17,0.00,,,0.00,weatherlink.com 1.10,2013-03-07 23:02:00,
2013-03-07 16:17:00,79.0,31.0,29.88,WNW,285,4.0,5.0,17,0.00,,,0.00,weatherlink.com 1.10,2013-03-07 23:17:00,
2013-03-07 16:32:00,79.2,31.0,29.88,SSW,201,1.0,6.0,17,0.00,,,0.00,weatherlink.com 1.10,2013-03-07 23:32:00,
2013-03-07 16:47:00,78.5,30.0,29.87,ENE,76,3.0,3.0,17,0.00,,,0.00,weatherlink.com 1.10,2013-03-07 23:47:00,
2013-03-07 17:02:00,77.8,30.0,29.87,WSW,255,1.0,2.0,17,0.00,,,0.00,weatherlink.com 1.10,2013-03-08 00:02:00,
2013-03-07 17:17:00,78.2,30.0,29.87,ESE,111,1.0,3.0,17,0.00,,,0.00,weatherlink.com 1.10,2013-03-08 00:17:00,
2013-03-07 17:32:00,74.9,30.0,29.87,East,79,2.0,7.0,19,0.00,,,0.00,weatherlink.com 1.10,2013-03-08 00:32:00,
2013-03-07 17:47:00,73.9,29.0,29.87,NE,41,0.0,1.0,19,0.00,,,0.00,weatherlink.com 1.10,2013-03-08 00:47:00,
2013-03-07 18:02:00,73.4,30.0,29.86,WSW,255,0.0,1.0,20,0.00,,,0.00,weatherlink.com 1.10,2013-03-08 01:02:00,
2013-03-07 18:17:00,72.7,29.0,29.86,West,276,1.0,1.0,20,0.00,,,0.00,weatherlink.com 1.10,2013-03-08 01:17:00,
2013-03-07 18:32:00,71.4,28.0,29.86,NW,325,8.0,11.0,20,0.00,,,0.00,weatherlink.com 1.10,2013-03-08 01:32:00,
2013-03-07 18:47:00,70.6,28.0,29.86,NW,316,10.0,12.0,20,0.00,,,0.00,weatherlink.com 1.10,2013-03-08 01:47:00,
2013-03-07 19:02:00,70.2,27.0,29.87,NW,321,7.0,12.0,20,0.00,,,0.00,weatherlink.com 1.10,2013-03-08 02:02:00,
2013-03-07 19:17:00,70.1,27.0,29.86,NW,319,6.0,11.0,20,0.00,,,0.00,weatherlink.com 1.10,2013-03-08 02:17:00,
2013-03-07 19:32:00,70.1,27.0,29.86,NNW,330,6.0,9.0,20,0.00,,,0.00,weatherlink.com 1.10,2013-03-08 02:32:00,
2013-03-07 19:47:00,70.1,27.0,29.86,NNW,327,5.0,7.0,20,0.00,,,0.00,weatherlink.com 1.10,2013-03-08 02:47:00,
2013-03-07 20:02:00,70.2,27.0,29.87,NW,315,4.0,7.0,20,0.00,,,0.00,weatherlink.com 1.10,2013-03-08 03:02:00,
2013-03-07 20:32:00,69.9,27.0,29.87,NNW,329,6.0,8.0,20,0.00,,,0.00,weatherlink.com 1.10,2013-03-08 03:32:00,
2013-03-07 20:47:00,69.4,28.0,29.87,NW,311,7.0,10.0,21,0.00,,,0.00,weatherlink.com 1.10,2013-03-08 03:47:00,
2013-03-07 21:02:00,69.2,28.0,29.88,NW,315,7.0,10.0,21,0.00,,,0.00,weatherlink.com 1.10,2013-03-08 04:02:00,
2013-03-07 21:17:00,68.8,28.0,29.88,NW,311,7.0,9.0,22,0.00,,,0.00,weatherlink.com 1.10,2013-03-08 04:17:00,
2013-03-07 21:32:00,68.8,28.0,29.88,WNW,299,2.0,7.0,22,0.00,,,0.00,weatherlink.com 1.10,2013-03-08 04:32:00,
2013-03-07 21:47:00,67.8,29.0,29.88,WSW,253,0.0,1.0,23,0.00,,,0.00,weatherlink.com 1.10,2013-03-08 04:47:00,
2013-03-07 22:02:00,67.4,29.0,29.88,WNW,284,2.0,3.0,24,0.00,,,0.00,weatherlink.com 1.10,2013-03-08 05:02:00,
2013-03-07 22:17:00,68.1,29.0,29.88,West,271,0.0,3.0,23,0.00,,,0.00,weatherlink.com 1.10,2013-03-08 05:17:00,
2013-03-07 22:32:00,67.8,30.0,29.88,SSW,198,0.0,3.0,24,0.00,,,0.00,weatherlink.com 1.10,2013-03-08 05:32:00,
2013-03-07 22:47:00,66.9,29.0,29.88,SW,236,1.0,1.0,24,0.00,,,0.00,weatherlink.com 1.10,2013-03-08 05:47:00,
2013-03-07 23:02:00,67.2,29.0,29.88,SE,132,1.0,3.0,24,0.00,,,0.00,weatherlink.com 1.10,2013-03-08 06:02:00,
2013-03-07 23:17:00,63.4,30.0,29.88,ENE,78,3.0,11.0,29,0.00,,,0.00,weatherlink.com 1.10,2013-03-08 06:17:00,
2013-03-07 23:32:00,63.2,29.0,29.88,SE,131,1.0,4.0,28,0.00,,,0.00,weatherlink.com 1.10,2013-03-08 06:32:00,
2013-03-07 23:47:00,62.6,30.0,29.88,SW,233,0.0,4.0,29,0.00,,,0.00,weatherlink.com 1.10,2013-03-08 06:47:00,